This is the latest recevied weather packets stored in our database for station/object F8KGK-5. If no packets are shown the sender has not sent any weather packets the latest 10 day(s).
| Time | Temp. | Humidity | Pressure | Rain* | Wind** | Luminosity | Snow |
|---|---|---|---|---|---|---|---|
| 1787880745 | 16.67° C | 90% | 1002.7 hPa | 0 mm | - | - | - |
| 1787878945 | 17.78° C | 90% | 1002.7 hPa | 0 mm | - | - | - |
| 1787877144 | 17.78° C | 90% | 1003.1 hPa | 0 mm | - | - | - |
| 1787875344 | 17.78° C | 89% | 1002.6 hPa | 0 mm | - | - | - |
| 1787873544 | 17.22° C | 89% | 1002.7 hPa | 0 mm | - | - | - |
| 1787871745 | 16.67° C | 89% | 1002.9 hPa | 0 mm | - | - | - |
| 1787869946 | 17.22° C | 89% | 1003.1 hPa | 0 mm | - | - | - |
| 1787868145 | 17.22° C | 88% | 1003.1 hPa | 0 mm | - | - | - |
| 1787866345 | 17.78° C | 87% | 1003.2 hPa | 0 mm | - | - | - |
| 1787864545 | 18.33° C | 87% | 1003.3 hPa | 0 mm | - | - | - |
| 1787862746 | 18.89° C | 86% | 1003.6 hPa | 0 mm | - | - | - |
| 1787860945 | 18.89° C | 85% | 1003.2 hPa | 0 mm | - | - | - |
| 1787859144 | 18.89° C | 84% | 1002.4 hPa | 0 mm | - | - | - |
| 1787857344 | 19.44° C | 81% | 1002.3 hPa | 0 mm | - | - | - |
| 1787855545 | 20° C | 79% | 1002.6 hPa | 0 mm | - | - | - |
| 1787853745 | 21.11° C | 77% | 1002.6 hPa | 0 mm | - | - | - |
| 1787851944 | 20.56° C | 78% | 1003 hPa | 0 mm | - | - | - |
| 1787850144 | 20.56° C | 77% | 1002.2 hPa | 0.51 mm | - | - | - |
| 1787848345 | 20.56° C | 74% | 1003.2 hPa | 1.02 mm | - | - | - |
| 1787846544 | 20° C | 71% | 1003.1 hPa | 0.51 mm | - | - | - |
| 1787844744 | 21.67° C | 66% | 1003.1 hPa | 0 mm | - | - | - |
| 1787830651 | 31.11° C | 51% | 1003.1 hPa | 0 mm | - | - | - |
| 1787828851 | 25.56° C | 63% | 1002.8 hPa | 0 mm | - | - | - |
| 1787827052 | 26.11° C | 62% | 1003.1 hPa | 0 mm | - | - | - |
| 1787825253 | 27.22° C | 59% | 1003.4 hPa | 0 mm | - | - | - |
* Rain latest hour (hover to see other rain measurements)
** Current wind speed in m/s (hover to see current wind gust speed)